Sigonella Airport LICZ

Flugplatz Daten

Name: Sigonella Airport

Ident: LICZ

Lat: 37,40169907

Long: 14,92240047

Platzhöhe: 79 ft

IataCode: NSY

City:

Metar

2021/12/03 23:55
LICZ 032355Z 24016KT 7000 -RA SCT020 BKN070 13/13 Q1007 RMK BKN VIS MIN 7000 WIND THR28 25015KT WIND THR10 25015KT A2976 WHT

Taf

2021/12/03 00:25
TAF LICZ 032300Z 0400/0424 28008KT 9999 SCT030 SCT070
TEMPO 0400/0406 5000 SHRA FEW018CB SCT030
TEMPO 0409/0417 29016KT
Gewünschte Webcam nicht vorhanden? Dann fügen Sie eine hinzu. Sie wird dann so schnell wie möglich freigeschaltet
Url: Title: